Time;durP1;ratioP1;P1;durP2;ratioP2;P2;SDS_P1;SDS_P2;PMS_P1;PMS_P2;Temp;Humidity;BMP_temperature;BMP_pressure;BME280_temperature;BME280_humidity;BME280_pressure;Samples;Min_cycle;Max_cycle;Signal;HPM_P1;HPM_P2
2023/02/15 00:01:46;;;;;;;62.90;33.53;;;4.60;99.90;;;;;;6181791;23;20009;-69
2023/02/15 00:04:20;;;;;;;74.03;37.03;;;4.70;99.90;;;;;;6180717;23;20008;-69
2023/02/15 00:06:47;;;;;;;69.03;37.38;;;4.70;99.90;;;;;;6180569;23;20513;-69
2023/02/15 00:09:13;;;;;;;70.85;38.65;;;4.60;99.90;;;;;;6181649;23;20013;-69
2023/02/15 00:11:51;;;;;;;68.78;37.45;;;4.60;99.90;;;;;;6181262;23;20077;-69
2023/02/15 00:14:19;;;;;;;65.47;37.35;;;4.60;99.90;;;;;;6180864;23;20067;-69
2023/02/15 00:16:45;;;;;;;67.40;37.47;;;4.50;99.90;;;;;;6179929;23;20058;-69
2023/02/15 00:19:12;;;;;;;74.10;38.85;;;4.50;99.90;;;;;;6181178;23;20004;-69
2023/02/15 00:21:39;;;;;;;74.93;37.97;;;4.50;99.90;;;;;;6181331;23;20064;-69
2023/02/15 00:24:07;;;;;;;74.53;39.28;;;4.50;99.90;;;;;;6180433;23;20483;-69
2023/02/15 00:26:33;;;;;;;72.55;38.33;;;4.50;99.90;;;;;;6180356;23;20008;-69
2023/02/15 00:28:59;;;;;;;77.72;41.13;;;4.50;99.90;;;;;;6181826;23;20088;-69
2023/02/15 00:31:27;;;;;;;81.75;41.95;;;4.50;99.90;;;;;;6181595;23;20032;-69
2023/02/15 00:33:52;;;;;;;77.95;42.45;;;4.50;99.90;;;;;;6181302;23;20063;-69
2023/02/15 00:36:18;;;;;;;68.28;37.25;;;4.50;99.90;;;;;;6181370;23;20321;-69
2023/02/15 00:38:44;;;;;;;66.20;36.55;;;4.40;99.90;;;;;;6181894;23;20039;-69
2023/02/15 00:41:10;;;;;;;65.47;34.75;;;4.40;99.90;;;;;;6179823;23;20371;-69
2023/02/15 00:43:36;;;;;;;62.05;33.30;;;4.40;99.90;;;;;;6180953;23;20517;-69
2023/02/15 00:46:04;;;;;;;59.78;35.90;;;4.40;99.90;;;;;;6181454;23;20016;-69
2023/02/15 00:48:29;;;;;;;63.38;36.13;;;4.40;99.90;;;;;;6154630;23;20012;-69
2023/02/15 00:50:59;;;;;;;67.47;37.10;;;4.40;99.90;;;;;;6184137;23;20326;-69
2023/02/15 00:53:26;;;;;;;60.35;34.25;;;4.50;99.90;;;;;;6157357;23;20008;-69
2023/02/15 00:55:52;;;;;;;57.78;32.05;;;4.40;99.90;;;;;;6183801;23;20015;-69
2023/02/15 00:58:18;;;;;;;61.83;34.53;;;4.40;99.90;;;;;;6184886;23;20008;-69
2023/02/15 01:00:45;;;;;;;63.58;34.60;;;4.40;99.90;;;;;;6185008;23;20033;-69
2023/02/15 01:03:12;;;;;;;58.97;31.98;;;4.40;99.90;;;;;;6184359;23;20009;-69
2023/02/15 01:05:38;;;;;;;59.10;33.13;;;4.40;99.90;;;;;;6185026;23;19997;-69
2023/02/15 01:08:04;;;;;;;62.22;35.60;;;4.40;99.90;;;;;;6157343;23;20009;-69
2023/02/15 01:10:30;;;;;;;64.70;37.47;;;4.40;99.90;;;;;;6183627;23;19997;-69
2023/02/15 01:12:56;;;;;;;68.00;34.60;;;4.30;99.90;;;;;;6184299;23;20012;-69
2023/02/15 01:15:23;;;;;;;56.17;32.88;;;4.30;99.90;;;;;;6180874;23;20025;-69
2023/02/15 01:17:52;;;;;;;64.18;32.17;;;4.30;99.90;;;;;;6184084;23;20051;-68
2023/02/15 01:20:23;;;;;;;65.18;34.10;;;4.20;99.90;;;;;;6184907;23;20445;-69
2023/02/15 01:22:50;;;;;;;65.65;37.20;;;4.20;99.90;;;;;;6184371;23;20001;-69
2023/02/15 01:25:16;;;;;;;73.43;40.08;;;4.20;99.90;;;;;;6182456;23;20001;-69
2023/02/15 01:27:42;;;;;;;65.13;35.70;;;4.10;99.90;;;;;;6157266;23;20067;-69
2023/02/15 01:30:10;;;;;;;79.60;41.58;;;4.10;99.90;;;;;;6185179;23;20029;-69
2023/02/15 01:32:35;;;;;;;86.10;44.58;;;4.10;99.90;;;;;;6181921;23;20002;-69
2023/02/15 01:35:02;;;;;;;82.45;44.72;;;4.10;99.90;;;;;;6184754;23;20019;-68
2023/02/15 01:37:30;;;;;;;78.72;41.90;;;4.10;99.90;;;;;;6183057;23;19997;-69
2023/02/15 01:39:56;;;;;;;70.30;40.25;;;4.20;99.90;;;;;;6184321;23;20060;-69
2023/02/15 01:42:23;;;;;;;80.88;41.65;;;4.10;99.90;;;;;;6183983;23;20002;-69
2023/02/15 01:44:56;;;;;;;69.82;41.55;;;4.20;99.90;;;;;;6181244;23;20012;-69
2023/02/15 01:47:24;;;;;;;73.80;39.03;;;4.20;99.90;;;;;;6184929;23;20017;-69
2023/02/15 01:50:03;;;;;;;76.43;40.47;;;4.10;99.90;;;;;;6183822;23;20058;-69
2023/02/15 01:52:29;;;;;;;72.72;38.13;;;4.20;99.90;;;;;;6184422;23;20001;-69
2023/02/15 01:54:55;;;;;;;75.32;39.88;;;4.10;99.90;;;;;;6184035;23;20009;-69
2023/02/15 01:57:25;;;;;;;66.85;35.97;;;4.10;99.90;;;;;;6181298;23;20041;-69
2023/02/15 01:59:56;;;;;;;68.57;35.85;;;4.10;99.90;;;;;;6183912;23;19997;-69
2023/02/15 02:02:24;;;;;;;64.45;35.78;;;4.10;99.90;;;;;;6184506;23;20047;-69
2023/02/15 02:04:52;;;;;;;64.10;34.80;;;4.10;99.90;;;;;;6184399;23;19997;-69
2023/02/15 02:07:21;;;;;;;59.28;33.85;;;4.10;99.90;;;;;;6182781;23;20001;-69
2023/02/15 02:09:48;;;;;;;67.20;34.58;;;4.00;99.90;;;;;;6179960;23;20324;-69
2023/02/15 02:12:16;;;;;;;64.82;35.65;;;4.00;99.90;;;;;;6182860;23;20016;-69
2023/02/15 02:14:42;;;;;;;65.25;36.20;;;4.00;99.90;;;;;;6157278;23;20687;-69
2023/02/15 02:17:18;;;;;;;56.75;31.67;;;4.00;99.90;;;;;;6179737;23;20012;-69
2023/02/15 02:20:08;;;;;;;58.88;31.98;;;4.00;99.90;;;;;;6181216;23;20001;-69
2023/02/15 02:22:52;;;;;;;62.85;34.22;;;4.00;99.90;;;;;;6157120;23;20016;-69
2023/02/15 02:25:32;;;;;;;66.30;33.38;;;4.00;99.90;;;;;;6184211;23;20036;-69
2023/02/15 02:28:16;;;;;;;64.22;33.10;;;4.00;99.90;;;;;;6155760;23;20040;-69
2023/02/15 02:31:07;;;;;;;57.78;34.35;;;4.00;99.90;;;;;;6183829;23;20076;-69
2023/02/15 02:33:36;;;;;;;59.85;34.67;;;4.00;99.90;;;;;;6127712;23;20328;-69
2023/02/15 02:36:20;;;;;;;66.75;35.92;;;3.90;99.90;;;;;;6183113;23;20009;-69
2023/02/15 02:39:10;;;;;;;65.45;38.30;;;3.90;99.90;;;;;;6183012;23;20440;-69
2023/02/15 02:41:58;;;;;;;60.05;35.92;;;3.90;99.90;;;;;;6180048;23;20081;-69
2023/02/15 02:44:29;;;;;;;67.80;39.20;;;3.80;99.90;;;;;;6182855;23;20055;-69
2023/02/15 02:47:11;;;;;;;68.28;37.22;;;3.80;99.90;;;;;;6182458;23;20008;-69
2023/02/15 02:49:42;;;;;;;73.15;37.40;;;3.70;99.90;;;;;;6181659;23;20005;-68
2023/02/15 02:52:40;;;;;;;67.25;38.05;;;3.70;99.90;;;;;;6183283;23;20005;-69
2023/02/15 02:55:36;;;;;;;62.97;36.10;;;3.80;99.90;;;;;;6182720;23;20456;-68
2023/02/15 02:58:11;;;;;;;71.72;37.60;;;3.80;99.90;;;;;;6183256;23;20001;-69
2023/02/15 03:00:41;;;;;;;61.70;33.25;;;3.80;99.90;;;;;;6181015;23;20079;-69
2023/02/15 03:03:14;;;;;;;56.60;32.33;;;3.80;99.90;;;;;;6184027;23;20001;-69
2023/02/15 03:05:44;;;;;;;61.35;33.35;;;3.80;99.90;;;;;;6154126;23;20008;-69
2023/02/15 03:08:12;;;;;;;65.32;34.95;;;3.70;99.90;;;;;;6182034;23;19997;-68
2023/02/15 03:10:40;;;;;;;61.70;34.28;;;3.70;99.90;;;;;;6182244;23;20032;-69
2023/02/15 03:13:07;;;;;;;69.20;38.78;;;3.70;99.90;;;;;;6181125;23;20469;-69
2023/02/15 03:18:27;;;;;;;65.32;36.17;;;3.60;99.90;;;;;;6184598;23;20097;-69
2023/02/15 03:20:54;;;;;;;61.38;37.08;;;3.60;99.90;;;;;;6178443;23;20008;-68
2023/02/15 03:23:24;;;;;;;69.07;35.42;;;3.60;99.90;;;;;;6182205;23;20017;-69
2023/02/15 03:25:58;;;;;;;69.57;36.53;;;3.60;99.90;;;;;;6181619;23;20142;-69
2023/02/15 03:28:46;;;;;;;68.57;33.92;;;3.60;99.90;;;;;;6182635;23;20058;-69
2023/02/15 03:31:14;;;;;;;66.80;34.70;;;3.60;99.90;;;;;;6154797;23;20009;-69
2023/02/15 03:33:55;;;;;;;62.75;35.45;;;3.60;99.90;;;;;;6183646;23;20004;-69
2023/02/15 03:36:31;;;;;;;63.17;33.22;;;3.60;99.90;;;;;;6181559;23;20218;-69
2023/02/15 03:39:36;;;;;;;67.57;35.90;;;3.60;99.90;;;;;;6181747;23;20307;-69
2023/02/15 03:42:17;;;;;;;61.17;32.58;;;3.60;99.90;;;;;;6182263;23;20008;-69
2023/02/15 03:44:51;;;;;;;69.18;36.25;;;3.50;99.90;;;;;;6183703;23;20009;-68
2023/02/15 03:47:22;;;;;;;66.60;36.33;;;3.60;99.90;;;;;;6184158;23;20001;-68
2023/02/15 03:53:05;;;;;;;70.32;36.05;;;3.60;99.90;;;;;;6183241;23;20032;-68
2023/02/15 03:55:33;;;;;;;66.07;37.38;;;3.60;99.90;;;;;;6180036;23;20013;-68
2023/02/15 04:04:07;;;;;;;75.68;38.17;;;3.40;99.90;;;;;;6179139;23;20091;-68
2023/02/15 04:06:32;;;;;;;68.57;35.47;;;3.30;99.90;;;;;;6182750;23;20108;-68
2023/02/15 04:11:42;;;;;;;68.50;33.28;;;3.40;99.90;;;;;;6183927;23;20072;-69
2023/02/15 04:16:52;;;;;;;62.67;32.30;;;3.40;99.90;;;;;;6181645;23;20511;-69
2023/02/15 04:27:30;;;;;;;65.53;34.00;;;3.40;99.90;;;;;;6184201;23;20459;-68
2023/02/15 04:29:55;;;;;;;68.40;36.35;;;3.40;99.90;;;;;;6184470;23;20008;-68
2023/02/15 04:32:21;;;;;;;74.75;36.40;;;3.40;99.90;;;;;;6182214;23;20016;-69
2023/02/15 04:34:46;;;;;;;72.28;31.95;;;3.40;99.90;;;;;;6158407;23;20013;-68
2023/02/15 04:37:12;;;;;;;69.18;32.22;;;3.40;99.90;;;;;;6185174;23;20414;-69
2023/02/15 04:39:38;;;;;;;64.15;32.50;;;3.40;99.90;;;;;;6182067;23;20016;-68
2023/02/15 04:42:03;;;;;;;61.05;31.02;;;3.40;99.90;;;;;;6182707;23;20009;-68
2023/02/15 04:44:29;;;;;;;59.58;31.50;;;3.30;99.90;;;;;;6182745;23;20001;-68
2023/02/15 04:46:54;;;;;;;66.15;32.95;;;3.30;99.90;;;;;;6182914;23;20009;-68
2023/02/15 04:49:20;;;;;;;65.18;32.92;;;3.20;99.90;;;;;;6185702;23;20001;-68
2023/02/15 04:51:46;;;;;;;72.03;35.13;;;3.10;99.90;;;;;;6183732;23;20429;-68
2023/02/15 04:54:11;;;;;;;63.60;34.88;;;3.10;99.90;;;;;;6184372;23;20004;-69
2023/02/15 04:56:38;;;;;;;54.17;29.50;;;3.20;99.90;;;;;;6185476;23;20434;-68
2023/02/15 04:59:04;;;;;;;57.88;29.30;;;3.20;99.90;;;;;;6156298;23;20373;-68
2023/02/15 05:01:30;;;;;;;60.30;30.48;;;3.30;99.90;;;;;;6183324;23;20001;-68
2023/02/15 05:03:56;;;;;;;58.95;31.45;;;3.20;99.90;;;;;;6183730;23;20011;-68
2023/02/15 05:06:22;;;;;;;70.03;32.72;;;3.20;99.90;;;;;;6183647;23;20006;-68
2023/02/15 05:08:47;;;;;;;60.22;31.73;;;3.20;99.90;;;;;;6185279;23;20481;-68
2023/02/15 05:11:13;;;;;;;62.42;32.13;;;3.10;99.90;;;;;;6183527;23;20016;-68
2023/02/15 05:13:39;;;;;;;62.25;31.85;;;3.10;99.90;;;;;;6184661;23;20094;-68
2023/02/15 05:16:04;;;;;;;62.63;31.85;;;3.10;99.90;;;;;;6182266;23;20017;-68
2023/02/15 05:18:30;;;;;;;59.70;31.00;;;3.10;99.90;;;;;;6183527;23;20072;-68
2023/02/15 05:20:56;;;;;;;61.13;30.08;;;3.10;99.90;;;;;;6184533;23;20060;-68
2023/02/15 05:23:21;;;;;;;60.50;32.78;;;3.10;99.90;;;;;;6185144;23;20322;-68
2023/02/15 05:28:37;;;;;;;68.25;35.78;;;3.10;99.90;;;;;;6183741;23;20519;-68
2023/02/15 05:31:07;;;;;;;70.20;32.22;;;3.10;99.90;;;;;;6181119;23;20001;-68
2023/02/15 05:33:33;;;;;;;60.83;31.08;;;3.10;99.90;;;;;;6184446;23;20001;-68
2023/02/15 05:35:59;;;;;;;59.33;30.00;;;2.90;99.90;;;;;;6183926;23;20589;-68
2023/02/15 05:38:25;;;;;;;65.15;32.53;;;3.00;99.90;;;;;;6185258;23;20033;-68
2023/02/15 05:40:51;;;;;;;60.40;30.42;;;3.00;99.90;;;;;;6185481;23;20422;-68
2023/02/15 05:43:17;;;;;;;65.88;32.33;;;3.00;99.90;;;;;;6183794;23;20375;-68
2023/02/15 05:45:53;;;;;;;68.93;32.35;;;3.00;99.90;;;;;;6183215;23;20036;-68
2023/02/15 05:48:20;;;;;;;60.20;30.55;;;3.00;99.90;;;;;;6183999;23;20001;-68
2023/02/15 05:50:46;;;;;;;71.43;33.30;;;2.80;99.90;;;;;;6183393;23;20012;-68
2023/02/15 05:53:12;;;;;;;64.35;35.70;;;2.80;99.90;;;;;;6184392;23;20001;-68
2023/02/15 05:55:39;;;;;;;65.85;34.40;;;2.70;99.90;;;;;;6182807;23;20020;-68
2023/02/15 05:58:05;;;;;;;66.55;33.08;;;2.80;99.90;;;;;;6184055;23;20035;-68
2023/02/15 06:00:31;;;;;;;78.70;35.00;;;2.70;99.90;;;;;;6184575;23;20005;-68
2023/02/15 06:02:57;;;;;;;70.20;33.35;;;2.80;99.90;;;;;;6181726;23;20008;-68
2023/02/15 06:05:23;;;;;;;75.68;34.50;;;2.70;99.90;;;;;;6183416;23;20505;-68
2023/02/15 06:07:48;;;;;;;77.13;33.13;;;2.70;99.90;;;;;;6184912;23;20375;-68
2023/02/15 06:10:14;;;;;;;72.10;36.85;;;2.70;99.90;;;;;;6183697;23;20333;-68
2023/02/15 06:12:40;;;;;;;64.70;32.15;;;2.70;99.90;;;;;;6180179;23;20093;-68
2023/02/15 06:15:05;;;;;;;67.85;31.85;;;2.70;99.90;;;;;;6181408;23;20041;-68
2023/02/15 06:17:31;;;;;;;71.60;33.22;;;2.80;99.90;;;;;;6182942;23;20055;-68
2023/02/15 06:19:57;;;;;;;67.03;32.05;;;2.80;99.90;;;;;;6184407;23;20334;-68
2023/02/15 06:22:22;;;;;;;68.55;32.95;;;2.80;99.90;;;;;;6181040;23;20299;-68
2023/02/15 06:24:48;;;;;;;72.10;32.47;;;2.90;99.90;;;;;;6182789;23;20076;-68
2023/02/15 06:27:14;;;;;;;67.57;31.02;;;2.80;99.90;;;;;;6185116;23;20439;-68
2023/02/15 06:29:39;;;;;;;68.88;30.38;;;2.80;99.90;;;;;;6182672;23;20326;-68
2023/02/15 06:32:05;;;;;;;61.65;29.40;;;2.90;99.90;;;;;;6182372;23;20009;-68
2023/02/15 06:34:31;;;;;;;61.40;29.40;;;2.90;99.90;;;;;;6182077;23;20004;-68
2023/02/15 06:36:57;;;;;;;63.08;32.17;;;2.90;99.90;;;;;;6183433;23;20001;-68
2023/02/15 06:39:22;;;;;;;65.05;30.27;;;2.90;99.90;;;;;;6184610;23;20001;-68
2023/02/15 06:41:48;;;;;;;62.03;29.80;;;3.00;99.90;;;;;;6183481;23;20005;-68
2023/02/15 06:44:13;;;;;;;66.20;31.83;;;3.00;99.90;;;;;;6183408;23;20013;-68
2023/02/15 06:46:39;;;;;;;72.93;34.17;;;2.90;99.90;;;;;;6183935;23;20008;-67
2023/02/15 06:49:05;;;;;;;67.60;33.45;;;2.90;99.90;;;;;;6184631;23;20009;-68
2023/02/15 06:51:30;;;;;;;67.05;32.72;;;2.90;99.90;;;;;;6182756;23;20005;-68
2023/02/15 06:53:56;;;;;;;61.00;29.70;;;3.00;99.90;;;;;;6184301;23;19997;-68
2023/02/15 06:56:22;;;;;;;61.25;30.17;;;3.00;99.90;;;;;;6180946;23;20447;-68
2023/02/15 06:58:49;;;;;;;66.07;32.05;;;3.00;99.90;;;;;;6184162;23;20008;-68
2023/02/15 07:01:15;;;;;;;63.72;34.53;;;3.00;99.90;;;;;;6181601;23;20054;-68
2023/02/15 07:03:41;;;;;;;68.97;33.58;;;2.90;99.90;;;;;;6182640;23;20004;-68
2023/02/15 07:06:08;;;;;;;82.60;38.40;;;2.80;99.90;;;;;;6155985;23;20005;-68
2023/02/15 07:08:35;;;;;;;81.75;37.13;;;2.90;99.90;;;;;;6156962;23;20009;-70
2023/02/15 07:13:46;;;;;;;63.70;30.65;;;2.80;99.90;;;;;;6182517;23;20088;-69
2023/02/15 07:16:12;;;;;;;70.50;31.85;;;2.80;99.90;;;;;;6181796;23;20017;-68
2023/02/15 07:18:37;;;;;;;75.97;36.13;;;2.80;99.90;;;;;;6180569;23;20008;-68
2023/02/15 07:21:03;;;;;;;59.88;30.45;;;2.70;99.90;;;;;;6183560;23;20500;-68
2023/02/15 07:23:29;;;;;;;70.20;32.83;;;2.80;99.90;;;;;;6182371;23;20437;-67
2023/02/15 07:25:58;;;;;;;67.55;32.83;;;2.90;99.90;;;;;;6181478;23;20037;-68
2023/02/15 07:28:24;;;;;;;67.38;31.55;;;2.80;99.90;;;;;;6183577;23;20012;-68
2023/02/15 07:30:50;;;;;;;75.32;32.45;;;2.80;99.90;;;;;;6181021;23;19997;-67
2023/02/15 07:33:24;;;;;;;68.65;32.90;;;2.80;99.90;;;;;;6183821;23;20307;-68
2023/02/15 07:35:51;;;;;;;65.22;29.88;;;2.80;99.90;;;;;;6180921;23;20084;-67
2023/02/15 07:38:18;;;;;;;63.03;30.73;;;2.90;99.90;;;;;;6180560;23;20513;-68
2023/02/15 07:40:44;;;;;;;73.13;33.28;;;2.90;99.90;;;;;;6182548;23;20009;-68
2023/02/15 07:43:10;;;;;;;65.22;34.15;;;2.80;99.90;;;;;;6182582;23;20028;-68
2023/02/15 07:45:36;;;;;;;79.18;34.95;;;2.90;99.90;;;;;;6183441;23;20020;-68
2023/02/15 07:48:02;;;;;;;69.40;33.10;;;2.90;99.90;;;;;;6180877;23;20001;-69
2023/02/15 07:50:28;;;;;;;64.05;31.02;;;2.90;99.90;;;;;;6183273;23;20029;-69
2023/02/15 07:52:53;;;;;;;79.03;35.28;;;2.80;99.90;;;;;;6184423;23;20430;-69
2023/02/15 07:55:19;;;;;;;72.15;34.63;;;2.80;99.90;;;;;;6180850;23;20702;-68
2023/02/15 07:57:47;;;;;;;65.32;31.58;;;2.80;99.90;;;;;;6183260;23;20433;-68
2023/02/15 08:00:14;;;;;;;87.13;36.15;;;2.90;99.90;;;;;;6183110;23;20005;-69
2023/02/15 08:02:40;;;;;;;77.57;34.15;;;2.90;99.90;;;;;;6156895;23;20407;-67
2023/02/15 08:05:06;;;;;;;74.53;31.83;;;2.90;99.90;;;;;;6185486;23;20005;-69
2023/02/15 08:07:32;;;;;;;67.30;32.92;;;3.10;99.90;;;;;;6184366;23;20025;-69
2023/02/15 08:09:59;;;;;;;69.60;33.60;;;3.10;99.90;;;;;;6182886;23;20001;-69
2023/02/15 08:12:26;;;;;;;63.05;32.63;;;3.10;99.90;;;;;;6185019;23;20432;-68
2023/02/15 08:14:52;;;;;;;61.25;29.20;;;3.20;99.90;;;;;;6183258;23;20406;-68
2023/02/15 08:17:17;;;;;;;69.40;32.88;;;3.20;99.90;;;;;;6185436;23;20032;-69
2023/02/15 08:19:43;;;;;;;78.63;34.70;;;3.20;99.90;;;;;;6183891;23;20488;-69
2023/02/15 08:22:12;;;;;;;81.00;37.80;;;3.20;99.90;;;;;;6184900;23;20092;-68
2023/02/15 08:24:38;;;;;;;79.78;34.00;;;3.40;99.90;;;;;;6183653;23;20047;-68
2023/02/15 08:27:06;;;;;;;71.07;32.97;;;3.40;99.90;;;;;;6158133;23;20083;-69
2023/02/15 08:29:33;;;;;;;68.00;32.63;;;3.60;99.90;;;;;;6183834;23;20444;-68
2023/02/15 08:32:08;;;;;;;71.75;32.53;;;3.60;99.90;;;;;;6184765;23;20448;-69
2023/02/15 08:34:38;;;;;;;73.47;34.60;;;3.70;99.90;;;;;;6155700;23;20378;-69
2023/02/15 08:37:04;;;;;;;70.07;35.00;;;3.90;99.90;;;;;;6184726;23;20505;-69
2023/02/15 08:39:29;;;;;;;70.88;35.60;;;4.00;99.90;;;;;;6180725;23;20021;-69
2023/02/15 08:41:55;;;;;;;74.03;36.13;;;4.10;99.90;;;;;;6184816;23;20001;-69
2023/02/15 08:44:21;;;;;;;77.38;35.65;;;4.20;99.90;;;;;;6185427;23;20005;-69
2023/02/15 08:46:47;;;;;;;71.03;36.33;;;4.20;99.90;;;;;;6157099;23;20009;-69
2023/02/15 08:49:17;;;;;;;71.15;36.47;;;4.40;99.90;;;;;;6185473;23;19997;-68
2023/02/15 08:51:43;;;;;;;69.35;34.72;;;4.60;99.90;;;;;;6183500;23;20001;-69
2023/02/15 08:54:12;;;;;;;66.72;34.35;;;4.70;99.90;;;;;;6184003;23;20008;-69
2023/02/15 08:56:40;;;;;;;68.15;34.90;;;4.90;99.90;;;;;;6158490;23;20020;-69
2023/02/15 08:59:10;;;;;;;75.68;36.45;;;5.00;99.90;;;;;;6184992;23;20005;-69
2023/02/15 09:01:36;;;;;;;70.63;36.05;;;5.00;99.90;;;;;;6183255;23;20061;-69
2023/02/15 09:04:05;;;;;;;74.82;37.30;;;5.10;99.90;;;;;;6182932;23;20076;-69
2023/02/15 09:06:31;;;;;;;73.75;37.83;;;5.20;99.90;;;;;;6182137;23;20004;-69
2023/02/15 09:08:57;;;;;;;78.60;39.83;;;5.30;99.90;;;;;;6184098;23;20176;-69
2023/02/15 09:11:24;;;;;;;72.53;38.25;;;5.40;99.90;;;;;;6183368;23;20001;-69
2023/02/15 09:13:59;;;;;;;83.78;40.75;;;5.50;99.90;;;;;;6183847;23;20001;-69
2023/02/15 09:16:28;;;;;;;79.13;41.13;;;5.60;99.90;;;;;;6184197;23;20020;-71
2023/02/15 09:18:53;;;;;;;76.18;41.33;;;5.70;99.90;;;;;;6181834;23;20141;-69
2023/02/15 09:21:21;;;;;;;71.47;39.65;;;5.70;99.90;;;;;;6183468;23;20005;-72
2023/02/15 09:23:49;;;;;;;78.93;40.60;;;5.80;99.90;;;;;;6180884;23;20024;-71
2023/02/15 09:26:20;;;;;;;73.20;40.35;;;5.90;99.90;;;;;;6184387;23;20013;-71
2023/02/15 09:28:46;;;;;;;86.97;41.65;;;6.10;99.90;;;;;;6184348;23;20004;-71
2023/02/15 09:31:15;;;;;;;81.70;37.47;;;6.10;99.90;;;;;;6184177;23;20033;-72
2023/02/15 09:33:42;;;;;;;73.53;37.33;;;6.20;99.90;;;;;;6158274;23;20001;-71
2023/02/15 09:36:17;;;;;;;73.00;38.03;;;6.30;99.90;;;;;;6163624;23;20342;-71
2023/02/15 09:38:44;;;;;;;74.10;39.40;;;6.50;99.90;;;;;;6176289;23;19997;-72
2023/02/15 09:41:36;;;;;;;73.20;39.60;;;6.60;99.90;;;;;;6180163;23;20005;-72
2023/02/15 09:44:05;;;;;;;75.30;38.38;;;6.80;99.90;;;;;;6181017;23;20301;-72
2023/02/15 09:46:30;;;;;;;71.70;37.08;;;6.90;99.90;;;;;;6153873;23;20455;-72
2023/02/15 09:49:05;;;;;;;70.50;37.50;;;7.10;99.90;;;;;;6180603;23;20028;-72
2023/02/15 09:52:07;;;;;;;64.35;35.25;;;7.30;99.90;;;;;;6181373;23;20005;-72
2023/02/15 09:55:01;;;;;;;68.57;33.72;;;7.50;99.90;;;;;;6162148;23;20009;-73
2023/02/15 09:57:52;;;;;;;75.15;38.50;;;7.70;99.90;;;;;;6180632;23;20001;-73
2023/02/15 10:00:29;;;;;;;69.95;37.92;;;8.00;99.90;;;;;;6126200;23;20004;-73
2023/02/15 10:03:22;;;;;;;58.10;33.58;;;8.20;99.90;;;;;;6180913;23;20429;-74
2023/02/15 10:06:06;;;;;;;65.80;34.65;;;8.40;99.90;;;;;;6176613;23;20371;-73
2023/02/15 10:09:00;;;;;;;63.22;34.17;;;8.60;99.90;;;;;;6181012;23;20425;-73
2023/02/15 10:11:49;;;;;;;60.25;32.83;;;8.70;99.90;;;;;;6180789;23;20012;-73
2023/02/15 10:14:39;;;;;;;64.63;33.85;;;8.90;99.90;;;;;;6181508;23;20095;-73
2023/02/15 10:17:08;;;;;;;63.05;34.50;;;8.90;99.90;;;;;;6180738;23;20076;-73
2023/02/15 10:19:33;;;;;;;59.92;30.80;;;9.10;99.90;;;;;;6178960;23;20009;-72
2023/02/15 10:22:11;;;;;;;59.97;31.15;;;9.20;99.90;;;;;;6181136;23;20484;-72
2023/02/15 10:24:39;;;;;;;56.45;32.20;;;9.40;99.90;;;;;;6178692;23;20084;-73
2023/02/15 10:27:14;;;;;;;62.60;32.83;;;9.60;99.90;;;;;;6181014;23;20005;-73
2023/02/15 10:29:48;;;;;;;57.60;30.80;;;9.70;99.90;;;;;;6152495;23;20001;-73
2023/02/15 10:32:28;;;;;;;57.83;31.52;;;9.90;99.90;;;;;;6155270;23;20016;-73
2023/02/15 10:35:38;;;;;;;53.17;29.95;;;10.00;99.90;;;;;;6153714;23;20027;-73
2023/02/15 10:38:23;;;;;;;52.53;26.13;;;10.10;99.90;;;;;;6109907;23;20091;-73
2023/02/15 10:41:14;;;;;;;45.15;26.48;;;10.30;99.90;;;;;;6153260;23;20456;-73
2023/02/15 10:44:00;;;;;;;49.90;27.17;;;10.50;99.90;;;;;;6180910;23;20009;-74
2023/02/15 10:46:43;;;;;;;43.65;23.58;;;10.60;99.90;;;;;;6178220;23;20113;-74
2023/02/15 10:49:35;;;;;;;50.05;24.60;;;10.60;99.90;;;;;;6179989;23;20013;-73
2023/02/15 10:52:22;;;;;;;48.05;24.60;;;10.70;99.90;;;;;;6131075;23;20343;-73
2023/02/15 10:54:50;;;;;;;47.75;24.00;;;10.80;99.90;;;;;;6180795;23;20084;-74
2023/02/15 10:57:37;;;;;;;55.90;24.63;;;10.90;99.90;;;;;;6180593;23;20012;-73
2023/02/15 11:00:20;;;;;;;42.80;22.90;;;10.90;99.90;;;;;;6180936;23;20587;-74
2023/02/15 11:02:51;;;;;;;;;;;11.10;99.90;;;;;;6179446;23;20005;-71
2023/02/15 11:05:26;;;;;;;39.78;22.00;;;11.20;99.90;;;;;;6179695;23;19943;-74
2023/02/15 11:07:55;;;;;;;43.08;23.15;;;11.30;99.90;;;;;;6180138;23;20015;-74
2023/02/15 11:10:27;;;;;;;39.90;21.58;;;11.40;99.90;;;;;;6180270;23;20004;-73
2023/02/15 11:12:53;;;;;;;42.80;22.20;;;11.50;99.90;;;;;;6180962;23;20055;-74
2023/02/15 11:15:50;;;;;;;47.65;23.15;;;11.60;99.90;;;;;;6179174;23;20031;-74
2023/02/15 11:18:36;;;;;;;40.85;20.98;;;11.60;99.90;;;;;;6179926;23;20011;-74
2023/02/15 11:21:06;;;;;;;41.35;21.23;;;11.70;99.90;;;;;;6179207;23;20008;-72
2023/02/15 11:23:35;;;;;;;38.83;21.35;;;11.80;99.90;;;;;;6181457;23;20062;-72
2023/02/15 11:26:04;;;;;;;42.15;22.08;;;11.80;99.90;;;;;;6177448;23;20001;-73
2023/02/15 11:28:30;;;;;;;37.88;19.48;;;12.00;99.90;;;;;;6181600;23;20005;-73
2023/02/15 11:30:58;;;;;;;40.63;20.50;;;12.00;99.90;;;;;;6180955;23;20402;-74
2023/02/15 11:33:31;;;;;;;40.95;22.02;;;12.00;99.90;;;;;;6183934;23;20001;-74
2023/02/15 11:36:17;;;;;;;35.95;20.02;;;12.10;99.90;;;;;;6181636;23;20013;-74
2023/02/15 11:38:44;;;;;;;35.33;20.58;;;12.20;99.90;;;;;;6180890;23;20020;-74
2023/02/15 11:41:18;;;;;;;38.85;18.20;;;12.20;99.90;;;;;;6182370;23;20009;-74
2023/02/15 11:44:04;;;;;;;36.22;18.88;;;12.40;99.90;;;;;;6180539;23;20032;-74
2023/02/15 11:46:30;;;;;;;35.10;19.73;;;12.50;99.90;;;;;;6182613;23;20001;-73
2023/02/15 11:48:55;;;;;;;35.47;20.02;;;12.60;99.90;;;;;;6182653;23;20112;-71
2023/02/15 11:51:22;;;;;;;35.90;19.23;;;12.60;99.90;;;;;;6179455;23;20115;-73
2023/02/15 11:53:49;;;;;;;40.08;18.80;;;12.70;99.90;;;;;;6176096;23;20016;-72
2023/02/15 11:56:17;;;;;;;34.05;17.20;;;12.70;99.90;;;;;;6181956;23;20017;-72
2023/02/15 11:58:49;;;;;;;35.35;19.05;;;12.80;99.90;;;;;;6182126;23;20009;-71
2023/02/15 12:01:32;;;;;;;35.80;19.33;;;12.90;99.90;;;;;;6181605;23;20011;-72
2023/02/15 12:04:17;;;;;;;36.78;19.25;;;13.00;99.90;;;;;;6182870;23;20429;-72
2023/02/15 12:06:53;;;;;;;34.75;19.33;;;13.00;99.90;;;;;;6179732;23;20374;-74
2023/02/15 12:09:56;;;;;;;37.10;18.17;;;13.10;99.90;;;;;;6181297;23;20016;-74
2023/02/15 12:12:30;;;;;;;37.30;18.70;;;13.10;99.90;;;;;;6182194;23;20056;-75
2023/02/15 12:15:01;;;;;;;37.00;19.92;;;13.20;99.90;;;;;;6178311;23;20028;-74
2023/02/15 12:17:29;;;;;;;39.22;19.15;;;13.20;99.90;;;;;;6181763;23;20508;-74
2023/02/15 12:19:59;;;;;;;37.92;19.27;;;13.30;99.90;;;;;;6182174;23;20001;-74
2023/02/15 12:22:29;;;;;;;44.97;17.75;;;13.30;99.90;;;;;;6181579;23;20418;-75
2023/02/15 12:24:57;;;;;;;37.83;17.58;;;13.40;99.90;;;;;;6183196;23;20016;-74
2023/02/15 12:27:32;;;;;;;35.88;18.45;;;13.40;99.90;;;;;;6179089;23;20076;-74
2023/02/15 12:30:03;;;;;;;40.10;19.92;;;13.40;99.90;;;;;;6183145;23;20012;-74
2023/02/15 12:32:34;;;;;;;39.08;19.08;;;13.30;99.90;;;;;;6180640;23;20088;-74
2023/02/15 12:35:25;;;;;;;35.72;18.45;;;13.30;99.90;;;;;;6179125;23;20016;-74
2023/02/15 12:38:16;;;;;;;41.17;19.02;;;13.30;99.90;;;;;;6179862;23;20001;-74
2023/02/15 12:41:16;;;;;;;38.78;18.80;;;13.10;99.90;;;;;;6177348;23;20132;-74
2023/02/15 12:43:41;;;;;;;38.15;19.40;;;13.20;99.90;;;;;;6178961;23;20013;-73
2023/02/15 12:46:22;;;;;;;38.10;19.30;;;13.20;99.90;;;;;;6180420;23;20076;-74
2023/02/15 12:49:06;;;;;;;35.83;19.35;;;13.20;99.90;;;;;;6181915;23;20453;-74
2023/02/15 12:51:46;;;;;;;42.92;20.80;;;13.20;99.90;;;;;;6180917;23;20116;-74
2023/02/15 12:54:26;;;;;;;40.50;19.38;;;13.30;99.90;;;;;;6181893;23;20084;-74
2023/02/15 12:56:52;;;;;;;38.72;19.98;;;13.20;99.90;;;;;;6181839;23;20092;-74
2023/02/15 12:59:21;;;;;;;40.30;20.02;;;13.30;99.90;;;;;;6181055;23;20250;-74
2023/02/15 13:01:47;;;;;;;38.95;20.35;;;13.30;99.90;;;;;;6179583;23;20564;-74
2023/02/15 13:04:29;;;;;;;38.58;20.33;;;13.30;99.90;;;;;;6181513;23;20418;-74
2023/02/15 13:07:02;;;;;;;44.28;22.02;;;13.40;99.90;;;;;;6180110;23;20013;-75
2023/02/15 13:09:31;;;;;;;44.63;22.42;;;13.40;99.90;;;;;;6182703;23;19997;-74
2023/02/15 13:12:08;;;;;;;40.33;21.80;;;13.40;99.90;;;;;;6181730;23;20055;-75
2023/02/15 13:14:34;;;;;;;43.33;21.75;;;13.40;99.90;;;;;;6178491;23;20045;-75
2023/02/15 13:17:03;;;;;;;40.78;19.73;;;13.40;99.90;;;;;;6180395;23;20434;-75
2023/02/15 13:19:33;;;;;;;45.83;20.33;;;13.40;99.90;;;;;;6180009;23;20001;-74
2023/02/15 13:22:05;;;;;;;46.25;23.13;;;13.40;99.90;;;;;;6179860;23;20127;-74
2023/02/15 13:24:42;;;;;;;41.50;22.15;;;13.40;99.90;;;;;;6181635;23;20001;-74
2023/02/15 13:27:14;;;;;;;38.28;21.17;;;13.40;99.90;;;;;;6181680;23;20426;-74